sensor_id;sensor_type;location;lat;lon;timestamp;temperature;humidity
21778;DHT22;11050;52.222;20.916;2023-03-31T00:01:36;10.20;99.90
21778;DHT22;11050;52.222;20.916;2023-03-31T00:04:07;10.20;99.90
21778;DHT22;11050;52.222;20.916;2023-03-31T00:06:36;10.20;99.90
21778;DHT22;11050;52.222;20.916;2023-03-31T00:09:08;10.20;99.90
21778;DHT22;11050;52.222;20.916;2023-03-31T00:11:36;10.20;99.90
21778;DHT22;11050;52.222;20.916;2023-03-31T00:14:02;10.20;99.90
21778;DHT22;11050;52.222;20.916;2023-03-31T00:16:32;10.20;99.90
21778;DHT22;11050;52.222;20.916;2023-03-31T00:18:59;10.20;99.90
21778;DHT22;11050;52.222;20.916;2023-03-31T00:21:27;10.20;99.90
21778;DHT22;11050;52.222;20.916;2023-03-31T00:24:03;10.20;99.90
21778;DHT22;11050;52.222;20.916;2023-03-31T00:26:34;10.20;99.90
21778;DHT22;11050;52.222;20.916;2023-03-31T00:29:01;10.20;99.90
21778;DHT22;11050;52.222;20.916;2023-03-31T00:31:28;10.20;99.90
21778;DHT22;11050;52.222;20.916;2023-03-31T00:33:54;10.20;99.90
21778;DHT22;11050;52.222;20.916;2023-03-31T00:36:21;10.20;99.90
21778;DHT22;11050;52.222;20.916;2023-03-31T00:38:52;10.20;99.90
21778;DHT22;11050;52.222;20.916;2023-03-31T00:41:19;10.20;99.90
21778;DHT22;11050;52.222;20.916;2023-03-31T00:44:05;10.20;99.90
21778;DHT22;11050;52.222;20.916;2023-03-31T00:47:14;10.20;99.90
21778;DHT22;11050;52.222;20.916;2023-03-31T00:49:48;10.20;99.90
21778;DHT22;11050;52.222;20.916;2023-03-31T00:52:31;10.20;99.90
21778;DHT22;11050;52.222;20.916;2023-03-31T00:55:08;10.20;99.90
21778;DHT22;11050;52.222;20.916;2023-03-31T00:57:40;10.20;99.90
21778;DHT22;11050;52.222;20.916;2023-03-31T01:00:10;10.20;99.90
21778;DHT22;11050;52.222;20.916;2023-03-31T01:02:52;10.20;99.90
21778;DHT22;11050;52.222;20.916;2023-03-31T01:05:33;10.10;99.90
21778;DHT22;11050;52.222;20.916;2023-03-31T01:08:24;10.10;99.90
21778;DHT22;11050;52.222;20.916;2023-03-31T01:10:54;10.10;99.90
21778;DHT22;11050;52.222;20.916;2023-03-31T01:13:25;10.10;99.90
21778;DHT22;11050;52.222;20.916;2023-03-31T01:15:52;10.10;99.90
21778;DHT22;11050;52.222;20.916;2023-03-31T01:18:19;10.20;99.90
21778;DHT22;11050;52.222;20.916;2023-03-31T01:35:28;10.10;99.90
21778;DHT22;11050;52.222;20.916;2023-03-31T01:43:45;10.00;99.90
21778;DHT22;11050;52.222;20.916;2023-03-31T01:46:34;10.00;99.90
21778;DHT22;11050;52.222;20.916;2023-03-31T01:55:57;10.00;99.90
21778;DHT22;11050;52.222;20.916;2023-03-31T01:58:39;10.00;99.90
21778;DHT22;11050;52.222;20.916;2023-03-31T02:01:30;10.00;99.90
21778;DHT22;11050;52.222;20.916;2023-03-31T02:04:09;10.00;99.90
21778;DHT22;11050;52.222;20.916;2023-03-31T02:06:43;10.00;99.90
21778;DHT22;11050;52.222;20.916;2023-03-31T02:09:28;10.00;99.90
21778;DHT22;11050;52.222;20.916;2023-03-31T02:12:06;9.90;99.90
21778;DHT22;11050;52.222;20.916;2023-03-31T02:14:37;10.00;99.90
21778;DHT22;11050;52.222;20.916;2023-03-31T02:17:12;9.90;99.90
21778;DHT22;11050;52.222;20.916;2023-03-31T02:19:44;9.90;99.90
21778;DHT22;11050;52.222;20.916;2023-03-31T02:22:16;9.90;99.90
21778;DHT22;11050;52.222;20.916;2023-03-31T02:24:45;9.90;99.90
21778;DHT22;11050;52.222;20.916;2023-03-31T02:27:24;9.90;99.90
21778;DHT22;11050;52.222;20.916;2023-03-31T02:29:54;9.90;99.90
21778;DHT22;11050;52.222;20.916;2023-03-31T02:32:26;9.90;99.90
21778;DHT22;11050;52.222;20.916;2023-03-31T02:34:56;9.90;99.90
21778;DHT22;11050;52.222;20.916;2023-03-31T02:37:25;9.80;99.90
21778;DHT22;11050;52.222;20.916;2023-03-31T02:39:54;9.90;99.90
21778;DHT22;11050;52.222;20.916;2023-03-31T02:42:23;9.90;99.90
21778;DHT22;11050;52.222;20.916;2023-03-31T02:44:50;9.90;99.90
21778;DHT22;11050;52.222;20.916;2023-03-31T02:47:17;9.90;99.90
21778;DHT22;11050;52.222;20.916;2023-03-31T02:49:54;9.90;99.90
21778;DHT22;11050;52.222;20.916;2023-03-31T02:55:58;9.90;99.90
21778;DHT22;11050;52.222;20.916;2023-03-31T03:05:23;9.80;99.90
21778;DHT22;11050;52.222;20.916;2023-03-31T03:08:26;9.80;99.90
21778;DHT22;11050;52.222;20.916;2023-03-31T03:11:04;9.80;99.90
21778;DHT22;11050;52.222;20.916;2023-03-31T03:17:23;9.70;99.90
21778;DHT22;11050;52.222;20.916;2023-03-31T03:19:55;9.70;99.90
21778;DHT22;11050;52.222;20.916;2023-03-31T03:22:25;9.70;99.90
21778;DHT22;11050;52.222;20.916;2023-03-31T03:24:51;9.70;99.90
21778;DHT22;11050;52.222;20.916;2023-03-31T03:27:18;9.70;99.90
21778;DHT22;11050;52.222;20.916;2023-03-31T03:29:47;9.70;99.90
21778;DHT22;11050;52.222;20.916;2023-03-31T03:32:13;9.70;99.90
21778;DHT22;11050;52.222;20.916;2023-03-31T03:34:39;9.70;99.90
21778;DHT22;11050;52.222;20.916;2023-03-31T03:37:04;9.60;99.90
21778;DHT22;11050;52.222;20.916;2023-03-31T03:39:31;9.60;99.90
21778;DHT22;11050;52.222;20.916;2023-03-31T03:41:56;9.60;99.90
21778;DHT22;11050;52.222;20.916;2023-03-31T03:44:22;9.60;99.90
21778;DHT22;11050;52.222;20.916;2023-03-31T03:46:48;9.50;99.90
21778;DHT22;11050;52.222;20.916;2023-03-31T03:49:14;9.40;99.90
21778;DHT22;11050;52.222;20.916;2023-03-31T03:51:39;9.40;99.90
21778;DHT22;11050;52.222;20.916;2023-03-31T03:54:05;9.30;99.90
21778;DHT22;11050;52.222;20.916;2023-03-31T03:56:31;9.30;99.90
21778;DHT22;11050;52.222;20.916;2023-03-31T03:58:57;9.20;99.90
21778;DHT22;11050;52.222;20.916;2023-03-31T04:01:22;9.10;99.90
21778;DHT22;11050;52.222;20.916;2023-03-31T04:03:48;9.00;99.90
21778;DHT22;11050;52.222;20.916;2023-03-31T04:06:14;8.90;99.90
21778;DHT22;11050;52.222;20.916;2023-03-31T04:08:40;8.80;99.90
21778;DHT22;11050;52.222;20.916;2023-03-31T04:11:14;8.70;99.90
21778;DHT22;11050;52.222;20.916;2023-03-31T04:13:45;8.70;99.90
21778;DHT22;11050;52.222;20.916;2023-03-31T04:16:11;8.60;99.90
21778;DHT22;11050;52.222;20.916;2023-03-31T04:18:38;8.50;99.90
21778;DHT22;11050;52.222;20.916;2023-03-31T04:21:11;8.50;99.90
21778;DHT22;11050;52.222;20.916;2023-03-31T04:23:41;8.50;99.90
21778;DHT22;11050;52.222;20.916;2023-03-31T04:26:11;8.40;99.90
21778;DHT22;11050;52.222;20.916;2023-03-31T04:28:42;8.40;99.90
21778;DHT22;11050;52.222;20.916;2023-03-31T04:31:12;8.40;99.90
21778;DHT22;11050;52.222;20.916;2023-03-31T04:33:50;8.40;99.90
21778;DHT22;11050;52.222;20.916;2023-03-31T04:36:16;8.30;99.90
21778;DHT22;11050;52.222;20.916;2023-03-31T04:38:47;8.30;99.90
21778;DHT22;11050;52.222;20.916;2023-03-31T04:41:21;8.30;99.90
21778;DHT22;11050;52.222;20.916;2023-03-31T04:43:48;8.20;99.90
21778;DHT22;11050;52.222;20.916;2023-03-31T04:46:14;8.20;99.90
21778;DHT22;11050;52.222;20.916;2023-03-31T04:48:40;8.20;99.90
21778;DHT22;11050;52.222;20.916;2023-03-31T04:51:06;8.20;99.90
21778;DHT22;11050;52.222;20.916;2023-03-31T04:53:33;8.20;99.90
21778;DHT22;11050;52.222;20.916;2023-03-31T04:55:59;8.30;99.90
21778;DHT22;11050;52.222;20.916;2023-03-31T04:58:26;8.30;99.90
21778;DHT22;11050;52.222;20.916;2023-03-31T05:00:52;8.40;99.90
21778;DHT22;11050;52.222;20.916;2023-03-31T05:03:18;8.50;99.90
21778;DHT22;11050;52.222;20.916;2023-03-31T05:05:44;8.50;99.90
21778;DHT22;11050;52.222;20.916;2023-03-31T05:08:10;8.60;99.90
21778;DHT22;11050;52.222;20.916;2023-03-31T05:10:36;8.70;99.90
21778;DHT22;11050;52.222;20.916;2023-03-31T05:13:02;8.80;99.90
21778;DHT22;11050;52.222;20.916;2023-03-31T05:15:28;8.80;99.90
21778;DHT22;11050;52.222;20.916;2023-03-31T05:17:53;8.90;99.90
21778;DHT22;11050;52.222;20.916;2023-03-31T05:20:19;9.00;99.90
21778;DHT22;11050;52.222;20.916;2023-03-31T05:22:46;9.00;99.90
21778;DHT22;11050;52.222;20.916;2023-03-31T05:25:13;9.10;99.90
21778;DHT22;11050;52.222;20.916;2023-03-31T05:27:44;9.10;99.90
21778;DHT22;11050;52.222;20.916;2023-03-31T05:30:16;9.20;99.90
21778;DHT22;11050;52.222;20.916;2023-03-31T05:32:43;9.20;99.90
21778;DHT22;11050;52.222;20.916;2023-03-31T05:35:09;9.20;99.90
21778;DHT22;11050;52.222;20.916;2023-03-31T05:37:35;9.20;99.90
21778;DHT22;11050;52.222;20.916;2023-03-31T05:40:01;9.30;99.90
21778;DHT22;11050;52.222;20.916;2023-03-31T05:42:29;9.30;99.90
21778;DHT22;11050;52.222;20.916;2023-03-31T05:44:55;9.30;99.90
21778;DHT22;11050;52.222;20.916;2023-03-31T05:47:21;9.40;99.90
21778;DHT22;11050;52.222;20.916;2023-03-31T05:49:47;9.40;99.90
21778;DHT22;11050;52.222;20.916;2023-03-31T05:52:13;9.40;99.90
21778;DHT22;11050;52.222;20.916;2023-03-31T05:54:39;9.40;99.90
21778;DHT22;11050;52.222;20.916;2023-03-31T05:57:06;9.50;99.90
21778;DHT22;11050;52.222;20.916;2023-03-31T05:59:32;9.50;99.90
21778;DHT22;11050;52.222;20.916;2023-03-31T06:02:00;9.50;99.90
21778;DHT22;11050;52.222;20.916;2023-03-31T06:04:26;9.50;99.90
21778;DHT22;11050;52.222;20.916;2023-03-31T06:06:52;9.50;99.90
21778;DHT22;11050;52.222;20.916;2023-03-31T06:09:19;9.60;99.90
21778;DHT22;11050;52.222;20.916;2023-03-31T06:11:45;9.60;99.90
21778;DHT22;11050;52.222;20.916;2023-03-31T06:14:11;9.70;99.90
21778;DHT22;11050;52.222;20.916;2023-03-31T06:16:37;9.80;99.90
21778;DHT22;11050;52.222;20.916;2023-03-31T06:19:03;9.80;99.90
21778;DHT22;11050;52.222;20.916;2023-03-31T06:21:29;10.00;99.90
21778;DHT22;11050;52.222;20.916;2023-03-31T06:23:55;10.10;99.90
21778;DHT22;11050;52.222;20.916;2023-03-31T06:26:23;10.20;99.90
21778;DHT22;11050;52.222;20.916;2023-03-31T06:28:48;10.20;99.90
21778;DHT22;11050;52.222;20.916;2023-03-31T06:31:16;10.30;99.90
21778;DHT22;11050;52.222;20.916;2023-03-31T06:33:44;10.40;99.90
21778;DHT22;11050;52.222;20.916;2023-03-31T06:36:12;10.50;99.90
21778;DHT22;11050;52.222;20.916;2023-03-31T06:38:41;10.50;99.90
21778;DHT22;11050;52.222;20.916;2023-03-31T06:41:08;10.50;99.90
21778;DHT22;11050;52.222;20.916;2023-03-31T06:43:36;10.50;99.90
21778;DHT22;11050;52.222;20.916;2023-03-31T06:46:02;10.60;99.90
21778;DHT22;11050;52.222;20.916;2023-03-31T06:48:28;10.60;99.90
21778;DHT22;11050;52.222;20.916;2023-03-31T06:50:57;10.60;99.90
21778;DHT22;11050;52.222;20.916;2023-03-31T06:53:24;10.60;99.90
21778;DHT22;11050;52.222;20.916;2023-03-31T06:55:50;10.70;99.90
21778;DHT22;11050;52.222;20.916;2023-03-31T06:58:16;10.70;99.90
21778;DHT22;11050;52.222;20.916;2023-03-31T07:00:42;10.70;99.90
21778;DHT22;11050;52.222;20.916;2023-03-31T07:03:11;10.80;99.90
21778;DHT22;11050;52.222;20.916;2023-03-31T07:05:37;10.90;99.90
21778;DHT22;11050;52.222;20.916;2023-03-31T07:08:04;10.90;99.90
21778;DHT22;11050;52.222;20.916;2023-03-31T07:10:32;10.90;99.90
21778;DHT22;11050;52.222;20.916;2023-03-31T07:12:58;11.00;99.90
21778;DHT22;11050;52.222;20.916;2023-03-31T07:15:25;11.00;99.90
21778;DHT22;11050;52.222;20.916;2023-03-31T07:17:55;11.10;99.90
21778;DHT22;11050;52.222;20.916;2023-03-31T07:20:26;11.20;99.90
21778;DHT22;11050;52.222;20.916;2023-03-31T07:22:53;11.30;99.90
21778;DHT22;11050;52.222;20.916;2023-03-31T07:25:18;11.30;99.90
21778;DHT22;11050;52.222;20.916;2023-03-31T07:27:45;11.40;99.90
21778;DHT22;11050;52.222;20.916;2023-03-31T07:30:14;11.50;99.90
21778;DHT22;11050;52.222;20.916;2023-03-31T07:32:42;11.50;99.90
21778;DHT22;11050;52.222;20.916;2023-03-31T07:35:10;11.60;99.90
21778;DHT22;11050;52.222;20.916;2023-03-31T07:37:37;11.60;99.90
21778;DHT22;11050;52.222;20.916;2023-03-31T07:40:06;11.60;99.90
21778;DHT22;11050;52.222;20.916;2023-03-31T07:42:36;11.70;99.90
21778;DHT22;11050;52.222;20.916;2023-03-31T07:45:03;11.70;99.90
21778;DHT22;11050;52.222;20.916;2023-03-31T07:47:32;11.70;99.90
21778;DHT22;11050;52.222;20.916;2023-03-31T07:49:58;11.80;99.90
21778;DHT22;11050;52.222;20.916;2023-03-31T07:52:24;11.80;99.90
21778;DHT22;11050;52.222;20.916;2023-03-31T07:54:50;11.80;99.90
21778;DHT22;11050;52.222;20.916;2023-03-31T07:57:16;11.90;99.90
21778;DHT22;11050;52.222;20.916;2023-03-31T07:59:45;12.00;99.90
21778;DHT22;11050;52.222;20.916;2023-03-31T08:02:12;12.00;99.90
21778;DHT22;11050;52.222;20.916;2023-03-31T08:04:40;12.00;99.90
21778;DHT22;11050;52.222;20.916;2023-03-31T08:07:10;12.00;99.90
21778;DHT22;11050;52.222;20.916;2023-03-31T08:09:38;12.00;99.90
21778;DHT22;11050;52.222;20.916;2023-03-31T08:12:05;12.00;99.90
21778;DHT22;11050;52.222;20.916;2023-03-31T08:14:31;12.00;99.90
21778;DHT22;11050;52.222;20.916;2023-03-31T08:16:57;12.00;99.90
21778;DHT22;11050;52.222;20.916;2023-03-31T08:19:25;12.00;99.90
21778;DHT22;11050;52.222;20.916;2023-03-31T08:21:51;12.00;99.90
21778;DHT22;11050;52.222;20.916;2023-03-31T08:24:17;12.10;99.90
21778;DHT22;11050;52.222;20.916;2023-03-31T08:26:44;12.10;99.90
21778;DHT22;11050;52.222;20.916;2023-03-31T08:29:10;12.10;99.90
21778;DHT22;11050;52.222;20.916;2023-03-31T08:31:36;12.10;99.90
21778;DHT22;11050;52.222;20.916;2023-03-31T08:34:02;12.10;99.90
21778;DHT22;11050;52.222;20.916;2023-03-31T08:36:29;12.10;99.90
21778;DHT22;11050;52.222;20.916;2023-03-31T08:38:55;12.20;99.90
21778;DHT22;11050;52.222;20.916;2023-03-31T08:47:17;12.70;99.90
21778;DHT22;11050;52.222;20.916;2023-03-31T08:49:50;12.90;99.90
21778;DHT22;11050;52.222;20.916;2023-03-31T08:52:26;13.00;99.90
21778;DHT22;11050;52.222;20.916;2023-03-31T08:54:59;13.00;99.90
21778;DHT22;11050;52.222;20.916;2023-03-31T08:57:56;13.10;99.90
21778;DHT22;11050;52.222;20.916;2023-03-31T09:00:58;13.20;99.90
21778;DHT22;11050;52.222;20.916;2023-03-31T09:09:44;13.60;99.90
21778;DHT22;11050;52.222;20.916;2023-03-31T09:18:36;13.90;99.90
21778;DHT22;11050;52.222;20.916;2023-03-31T09:21:17;14.00;99.90
21778;DHT22;11050;52.222;20.916;2023-03-31T09:26:56;14.30;99.90
21778;DHT22;11050;52.222;20.916;2023-03-31T09:29:29;14.30;99.90
21778;DHT22;11050;52.222;20.916;2023-03-31T09:34:39;14.40;99.90
21778;DHT22;11050;52.222;20.916;2023-03-31T09:37:05;14.40;99.90
21778;DHT22;11050;52.222;20.916;2023-03-31T09:39:31;14.40;99.90
21778;DHT22;11050;52.222;20.916;2023-03-31T09:41:57;14.40;99.90
21778;DHT22;11050;52.222;20.916;2023-03-31T09:44:36;14.40;99.90
21778;DHT22;11050;52.222;20.916;2023-03-31T09:47:14;14.50;99.90
21778;DHT22;11050;52.222;20.916;2023-03-31T09:49:46;14.60;99.90
21778;DHT22;11050;52.222;20.916;2023-03-31T09:52:22;14.40;99.90
21778;DHT22;11050;52.222;20.916;2023-03-31T09:54:53;14.40;99.90
21778;DHT22;11050;52.222;20.916;2023-03-31T09:57:40;14.40;99.90
21778;DHT22;11050;52.222;20.916;2023-03-31T10:02:43;14.40;99.90
21778;DHT22;11050;52.222;20.916;2023-03-31T10:05:33;14.50;99.90
21778;DHT22;11050;52.222;20.916;2023-03-31T10:10:49;14.80;99.90
21778;DHT22;11050;52.222;20.916;2023-03-31T10:13:40;14.90;99.90
21778;DHT22;11050;52.222;20.916;2023-03-31T10:16:14;15.10;99.90
21778;DHT22;11050;52.222;20.916;2023-03-31T10:19:12;15.20;99.90
21778;DHT22;11050;52.222;20.916;2023-03-31T10:21:46;15.20;99.90
21778;DHT22;11050;52.222;20.916;2023-03-31T10:24:18;15.20;99.90
21778;DHT22;11050;52.222;20.916;2023-03-31T10:26:47;15.30;99.90
21778;DHT22;11050;52.222;20.916;2023-03-31T10:29:22;15.30;99.90
21778;DHT22;11050;52.222;20.916;2023-03-31T10:32:02;15.40;99.90
21778;DHT22;11050;52.222;20.916;2023-03-31T10:34:48;15.50;99.60
21778;DHT22;11050;52.222;20.916;2023-03-31T10:37:22;15.50;99.40
21778;DHT22;11050;52.222;20.916;2023-03-31T10:39:59;15.50;99.10
21778;DHT22;11050;52.222;20.916;2023-03-31T10:42:30;15.70;99.20
21778;DHT22;11050;52.222;20.916;2023-03-31T10:45:37;15.70;98.30
21778;DHT22;11050;52.222;20.916;2023-03-31T10:48:27;15.90;97.90
21778;DHT22;11050;52.222;20.916;2023-03-31T10:50:59;16.00;97.00
21778;DHT22;11050;52.222;20.916;2023-03-31T10:53:48;16.20;96.30
21778;DHT22;11050;52.222;20.916;2023-03-31T10:59:17;16.40;94.90
21778;DHT22;11050;52.222;20.916;2023-03-31T11:04:58;16.80;92.90
21778;DHT22;11050;52.222;20.916;2023-03-31T11:36:29;17.30;90.50
21778;DHT22;11050;52.222;20.916;2023-03-31T11:39:32;17.50;88.20
21778;DHT22;11050;52.222;20.916;2023-03-31T11:42:50;17.50;88.00
21778;DHT22;11050;52.222;20.916;2023-03-31T11:45:40;17.50;87.50
21778;DHT22;11050;52.222;20.916;2023-03-31T11:48:45;17.50;86.70
21778;DHT22;11050;52.222;20.916;2023-03-31T11:51:31;17.30;87.00
21778;DHT22;11050;52.222;20.916;2023-03-31T11:54:12;17.10;86.90
21778;DHT22;11050;52.222;20.916;2023-03-31T11:57:06;17.00;87.30
21778;DHT22;11050;52.222;20.916;2023-03-31T11:59:39;16.90;87.60
21778;DHT22;11050;52.222;20.916;2023-03-31T12:02:19;16.80;85.30
21778;DHT22;11050;52.222;20.916;2023-03-31T12:05:02;16.70;86.20
21778;DHT22;11050;52.222;20.916;2023-03-31T12:12:53;16.90;86.60
21778;DHT22;11050;52.222;20.916;2023-03-31T12:15:29;17.00;85.70
21778;DHT22;11050;52.222;20.916;2023-03-31T12:18:02;17.20;85.70
21778;DHT22;11050;52.222;20.916;2023-03-31T12:20:45;17.30;85.90
21778;DHT22;11050;52.222;20.916;2023-03-31T12:23:22;17.50;84.40
21778;DHT22;11050;52.222;20.916;2023-03-31T12:28:23;17.90;82.90
21778;DHT22;11050;52.222;20.916;2023-03-31T12:30:52;18.30;81.10
21778;DHT22;11050;52.222;20.916;2023-03-31T12:33:29;18.70;78.70
21778;DHT22;11050;52.222;20.916;2023-03-31T12:53:31;19.70;69.10
21778;DHT22;11050;52.222;20.916;2023-03-31T12:56:08;19.90;68.00
21778;DHT22;11050;52.222;20.916;2023-03-31T12:58:39;20.10;66.40
21778;DHT22;11050;52.222;20.916;2023-03-31T13:06:53;20.30;63.10
21778;DHT22;11050;52.222;20.916;2023-03-31T13:09:42;20.10;63.70
21778;DHT22;11050;52.222;20.916;2023-03-31T13:12:15;19.80;63.80
21778;DHT22;11050;52.222;20.916;2023-03-31T13:14:45;19.60;64.90
21778;DHT22;11050;52.222;20.916;2023-03-31T13:17:28;19.40;65.60
21778;DHT22;11050;52.222;20.916;2023-03-31T13:20:16;19.00;66.50
21778;DHT22;11050;52.222;20.916;2023-03-31T13:23:21;18.70;68.00
21778;DHT22;11050;52.222;20.916;2023-03-31T13:25:57;18.50;69.80
21778;DHT22;11050;52.222;20.916;2023-03-31T13:28:42;18.30;69.80
21778;DHT22;11050;52.222;20.916;2023-03-31T13:31:13;18.10;71.10
21778;DHT22;11050;52.222;20.916;2023-03-31T13:33:50;18.00;71.10
21778;DHT22;11050;52.222;20.916;2023-03-31T13:42:35;17.40;72.90
21778;DHT22;11050;52.222;20.916;2023-03-31T13:45:24;17.10;74.00
21778;DHT22;11050;52.222;20.916;2023-03-31T13:48:38;16.90;75.20
21778;DHT22;11050;52.222;20.916;2023-03-31T13:54:59;16.70;74.90
21778;DHT22;11050;52.222;20.916;2023-03-31T13:58:33;16.60;75.50
21778;DHT22;11050;52.222;20.916;2023-03-31T14:01:10;16.60;75.80
21778;DHT22;11050;52.222;20.916;2023-03-31T14:06:57;16.60;77.30
21778;DHT22;11050;52.222;20.916;2023-03-31T14:09:32;16.80;77.20
21778;DHT22;11050;52.222;20.916;2023-03-31T14:12:00;17.10;76.40
21778;DHT22;11050;52.222;20.916;2023-03-31T14:14:51;17.50;75.20
21778;DHT22;11050;52.222;20.916;2023-03-31T14:17:18;17.90;74.60
21778;DHT22;11050;52.222;20.916;2023-03-31T14:22:46;18.10;71.70
21778;DHT22;11050;52.222;20.916;2023-03-31T14:31:35;17.50;73.60
21778;DHT22;11050;52.222;20.916;2023-03-31T14:34:30;17.20;74.90
21778;DHT22;11050;52.222;20.916;2023-03-31T14:37:05;16.90;76.00
21778;DHT22;11050;52.222;20.916;2023-03-31T14:39:49;16.80;77.30
21778;DHT22;11050;52.222;20.916;2023-03-31T14:42:21;16.60;77.50
21778;DHT22;11050;52.222;20.916;2023-03-31T14:45:22;16.50;77.80
21778;DHT22;11050;52.222;20.916;2023-03-31T14:48:12;16.50;78.20
21778;DHT22;11050;52.222;20.916;2023-03-31T14:50:43;16.40;78.50
21778;DHT22;11050;52.222;20.916;2023-03-31T14:53:22;16.40;78.70
21778;DHT22;11050;52.222;20.916;2023-03-31T14:55:49;16.40;79.20
21778;DHT22;11050;52.222;20.916;2023-03-31T14:58:31;16.40;79.30
21778;DHT22;11050;52.222;20.916;2023-03-31T15:01:02;16.40;79.30
21778;DHT22;11050;52.222;20.916;2023-03-31T15:03:32;16.30;79.30
21778;DHT22;11050;52.222;20.916;2023-03-31T15:06:02;16.30;79.70
21778;DHT22;11050;52.222;20.916;2023-03-31T15:08:31;16.30;80.50
21778;DHT22;11050;52.222;20.916;2023-03-31T15:10:59;16.20;80.20
21778;DHT22;11050;52.222;20.916;2023-03-31T15:13:40;16.10;80.30
21778;DHT22;11050;52.222;20.916;2023-03-31T15:16:36;16.00;81.90
21778;DHT22;11050;52.222;20.916;2023-03-31T15:22:14;15.70;85.50
21778;DHT22;11050;52.222;20.916;2023-03-31T15:24:43;15.60;86.20
21778;DHT22;11050;52.222;20.916;2023-03-31T15:27:15;15.50;87.10
21778;DHT22;11050;52.222;20.916;2023-03-31T15:29:53;15.20;89.50
21778;DHT22;11050;52.222;20.916;2023-03-31T15:34:52;14.30;93.60
21778;DHT22;11050;52.222;20.916;2023-03-31T15:37:42;13.90;96.90
21778;DHT22;11050;52.222;20.916;2023-03-31T15:40:36;13.40;99.90
21778;DHT22;11050;52.222;20.916;2023-03-31T15:43:08;13.00;99.90
21778;DHT22;11050;52.222;20.916;2023-03-31T15:45:54;12.70;99.90
21778;DHT22;11050;52.222;20.916;2023-03-31T15:48:32;12.40;99.90
21778;DHT22;11050;52.222;20.916;2023-03-31T15:51:20;12.20;99.90
21778;DHT22;11050;52.222;20.916;2023-03-31T15:53:52;12.00;99.90
21778;DHT22;11050;52.222;20.916;2023-03-31T15:59:23;11.80;99.90
21778;DHT22;11050;52.222;20.916;2023-03-31T16:01:51;11.80;99.90
21778;DHT22;11050;52.222;20.916;2023-03-31T16:04:19;11.70;99.90
21778;DHT22;11050;52.222;20.916;2023-03-31T16:06:55;11.70;99.90
21778;DHT22;11050;52.222;20.916;2023-03-31T16:09:28;11.60;99.90
21778;DHT22;11050;52.222;20.916;2023-03-31T16:12:12;11.60;99.90
21778;DHT22;11050;52.222;20.916;2023-03-31T16:17:31;11.50;99.90
21778;DHT22;11050;52.222;20.916;2023-03-31T16:20:10;11.40;99.90
21778;DHT22;11050;52.222;20.916;2023-03-31T16:22:48;11.40;99.90
21778;DHT22;11050;52.222;20.916;2023-03-31T16:25:20;11.40;99.90
21778;DHT22;11050;52.222;20.916;2023-03-31T16:27:52;11.40;99.90
21778;DHT22;11050;52.222;20.916;2023-03-31T16:30:33;11.30;99.90
21778;DHT22;11050;52.222;20.916;2023-03-31T16:33:13;11.30;99.90
21778;DHT22;11050;52.222;20.916;2023-03-31T16:35:50;11.30;99.90
21778;DHT22;11050;52.222;20.916;2023-03-31T16:38:19;11.20;99.90
21778;DHT22;11050;52.222;20.916;2023-03-31T16:40:48;11.10;99.90
21778;DHT22;11050;52.222;20.916;2023-03-31T16:43:24;11.10;99.90
21778;DHT22;11050;52.222;20.916;2023-03-31T16:45:57;11.00;99.90
21778;DHT22;11050;52.222;20.916;2023-03-31T16:48:26;11.00;99.90
21778;DHT22;11050;52.222;20.916;2023-03-31T16:50:55;11.00;99.90
21778;DHT22;11050;52.222;20.916;2023-03-31T16:53:27;11.00;99.90
21778;DHT22;11050;52.222;20.916;2023-03-31T16:55:56;10.90;99.90
21778;DHT22;11050;52.222;20.916;2023-03-31T16:58:23;10.90;99.90
21778;DHT22;11050;52.222;20.916;2023-03-31T17:00:51;10.90;99.90
21778;DHT22;11050;52.222;20.916;2023-03-31T17:03:17;10.80;99.90
21778;DHT22;11050;52.222;20.916;2023-03-31T17:05:44;10.80;99.90
21778;DHT22;11050;52.222;20.916;2023-03-31T17:08:13;10.80;99.90
21778;DHT22;11050;52.222;20.916;2023-03-31T17:10:40;10.80;99.90
21778;DHT22;11050;52.222;20.916;2023-03-31T17:13:07;10.80;99.90
21778;DHT22;11050;52.222;20.916;2023-03-31T17:15:34;10.80;99.90
21778;DHT22;11050;52.222;20.916;2023-03-31T17:18:01;10.80;99.90
21778;DHT22;11050;52.222;20.916;2023-03-31T17:20:28;10.70;99.90
21778;DHT22;11050;52.222;20.916;2023-03-31T17:22:55;10.80;99.90
21778;DHT22;11050;52.222;20.916;2023-03-31T17:25:21;10.70;99.90
21778;DHT22;11050;52.222;20.916;2023-03-31T17:27:47;10.80;99.90
21778;DHT22;11050;52.222;20.916;2023-03-31T17:30:14;10.80;99.90
21778;DHT22;11050;52.222;20.916;2023-03-31T17:32:40;10.70;99.90
21778;DHT22;11050;52.222;20.916;2023-03-31T17:35:07;10.80;99.90
21778;DHT22;11050;52.222;20.916;2023-03-31T17:37:34;10.80;99.90
21778;DHT22;11050;52.222;20.916;2023-03-31T17:40:02;10.80;99.90
21778;DHT22;11050;52.222;20.916;2023-03-31T17:42:29;10.80;99.90
21778;DHT22;11050;52.222;20.916;2023-03-31T17:44:56;10.80;99.90
21778;DHT22;11050;52.222;20.916;2023-03-31T17:47:22;10.80;99.90
21778;DHT22;11050;52.222;20.916;2023-03-31T17:49:49;10.80;99.90
21778;DHT22;11050;52.222;20.916;2023-03-31T17:52:15;10.70;99.90
21778;DHT22;11050;52.222;20.916;2023-03-31T17:54:41;10.70;99.90
21778;DHT22;11050;52.222;20.916;2023-03-31T17:57:07;10.70;99.90
21778;DHT22;11050;52.222;20.916;2023-03-31T17:59:33;10.60;99.90
21778;DHT22;11050;52.222;20.916;2023-03-31T18:01:58;10.50;99.90
21778;DHT22;11050;52.222;20.916;2023-03-31T18:04:26;10.50;99.90
21778;DHT22;11050;52.222;20.916;2023-03-31T18:06:51;10.50;99.90
21778;DHT22;11050;52.222;20.916;2023-03-31T18:09:17;10.40;99.90
21778;DHT22;11050;52.222;20.916;2023-03-31T18:11:43;10.30;99.90
21778;DHT22;11050;52.222;20.916;2023-03-31T18:14:09;10.30;99.90
21778;DHT22;11050;52.222;20.916;2023-03-31T18:16:34;10.30;99.90
21778;DHT22;11050;52.222;20.916;2023-03-31T18:19:01;10.30;99.90
21778;DHT22;11050;52.222;20.916;2023-03-31T18:21:27;10.20;99.90
21778;DHT22;11050;52.222;20.916;2023-03-31T18:23:53;10.20;99.90
21778;DHT22;11050;52.222;20.916;2023-03-31T18:26:23;10.10;99.90
21778;DHT22;11050;52.222;20.916;2023-03-31T18:28:51;10.10;99.90
21778;DHT22;11050;52.222;20.916;2023-03-31T18:31:17;10.10;99.90
21778;DHT22;11050;52.222;20.916;2023-03-31T18:33:45;10.10;99.90
21778;DHT22;11050;52.222;20.916;2023-03-31T18:36:16;10.10;99.90
21778;DHT22;11050;52.222;20.916;2023-03-31T18:38:45;10.10;99.90
21778;DHT22;11050;52.222;20.916;2023-03-31T18:41:13;10.10;99.90
21778;DHT22;11050;52.222;20.916;2023-03-31T18:43:39;10.10;99.90